sensor_id;sensor_type;location;lat;lon;timestamp;temperature;humidity
13205;DHT22;6667;52.634;9.226;2024-01-10T00:00:28;-6.20;99.90
13205;DHT22;6667;52.634;9.226;2024-01-10T00:02:55;-6.20;99.90
13205;DHT22;6667;52.634;9.226;2024-01-10T00:05:21;-6.20;99.90
13205;DHT22;6667;52.634;9.226;2024-01-10T00:07:48;-6.30;99.90
13205;DHT22;6667;52.634;9.226;2024-01-10T00:10:15;-6.30;99.90
13205;DHT22;6667;52.634;9.226;2024-01-10T00:12:43;-6.30;99.90
13205;DHT22;6667;52.634;9.226;2024-01-10T00:15:10;-6.20;99.90
13205;DHT22;6667;52.634;9.226;2024-01-10T00:17:37;-6.20;99.90
13205;DHT22;6667;52.634;9.226;2024-01-10T00:20:07;-6.30;99.90
13205;DHT22;6667;52.634;9.226;2024-01-10T00:22:34;-6.30;99.90
13205;DHT22;6667;52.634;9.226;2024-01-10T00:25:00;-6.30;99.90
13205;DHT22;6667;52.634;9.226;2024-01-10T00:27:27;-6.30;99.90
13205;DHT22;6667;52.634;9.226;2024-01-10T00:29:55;-6.30;99.90
13205;DHT22;6667;52.634;9.226;2024-01-10T00:32:22;-6.30;99.90
13205;DHT22;6667;52.634;9.226;2024-01-10T00:34:49;-6.40;99.90
13205;DHT22;6667;52.634;9.226;2024-01-10T00:37:15;-6.30;99.90
13205;DHT22;6667;52.634;9.226;2024-01-10T00:39:42;-6.30;99.90
13205;DHT22;6667;52.634;9.226;2024-01-10T00:42:08;-6.40;99.90
13205;DHT22;6667;52.634;9.226;2024-01-10T00:44:35;-6.40;99.90
13205;DHT22;6667;52.634;9.226;2024-01-10T00:47:03;-6.40;99.90
13205;DHT22;6667;52.634;9.226;2024-01-10T00:49:30;-6.40;99.90
13205;DHT22;6667;52.634;9.226;2024-01-10T00:51:57;-6.50;99.90
13205;DHT22;6667;52.634;9.226;2024-01-10T00:54:23;-6.40;99.90
13205;DHT22;6667;52.634;9.226;2024-01-10T00:56:50;-6.40;99.90
13205;DHT22;6667;52.634;9.226;2024-01-10T00:59:16;-6.40;99.90
13205;DHT22;6667;52.634;9.226;2024-01-10T01:01:43;-6.50;99.90
13205;DHT22;6667;52.634;9.226;2024-01-10T01:04:11;-6.50;99.90
13205;DHT22;6667;52.634;9.226;2024-01-10T01:06:37;-6.60;99.90
13205;DHT22;6667;52.634;9.226;2024-01-10T01:09:04;-6.60;99.90
13205;DHT22;6667;52.634;9.226;2024-01-10T01:11:31;-6.60;99.90
13205;DHT22;6667;52.634;9.226;2024-01-10T01:13:57;-6.60;99.90
13205;DHT22;6667;52.634;9.226;2024-01-10T01:16:24;-6.60;99.90
13205;DHT22;6667;52.634;9.226;2024-01-10T01:18:50;-6.60;99.90
13205;DHT22;6667;52.634;9.226;2024-01-10T01:21:18;-6.60;99.90
13205;DHT22;6667;52.634;9.226;2024-01-10T01:23:45;-6.60;99.90
13205;DHT22;6667;52.634;9.226;2024-01-10T01:26:11;-6.60;99.90
13205;DHT22;6667;52.634;9.226;2024-01-10T01:28:39;-6.60;99.90
13205;DHT22;6667;52.634;9.226;2024-01-10T01:31:06;-6.60;99.90
13205;DHT22;6667;52.634;9.226;2024-01-10T01:33:33;-6.60;99.90
13205;DHT22;6667;52.634;9.226;2024-01-10T01:35:59;-6.60;99.90
13205;DHT22;6667;52.634;9.226;2024-01-10T01:38:27;-6.60;99.90
13205;DHT22;6667;52.634;9.226;2024-01-10T01:40:54;-6.60;99.90
13205;DHT22;6667;52.634;9.226;2024-01-10T01:43:22;-6.60;99.90
13205;DHT22;6667;52.634;9.226;2024-01-10T01:45:50;-6.60;99.90
13205;DHT22;6667;52.634;9.226;2024-01-10T01:48:18;-6.60;99.90
13205;DHT22;6667;52.634;9.226;2024-01-10T01:50:45;-6.60;99.90
13205;DHT22;6667;52.634;9.226;2024-01-10T01:53:13;-6.60;99.90
13205;DHT22;6667;52.634;9.226;2024-01-10T01:55:41;-6.60;99.90
13205;DHT22;6667;52.634;9.226;2024-01-10T01:58:08;-6.60;99.90
13205;DHT22;6667;52.634;9.226;2024-01-10T02:00:35;-6.70;99.90
13205;DHT22;6667;52.634;9.226;2024-01-10T02:03:02;-6.70;99.90
13205;DHT22;6667;52.634;9.226;2024-01-10T02:05:31;-6.70;99.90
13205;DHT22;6667;52.634;9.226;2024-01-10T02:07:58;-6.60;99.90
13205;DHT22;6667;52.634;9.226;2024-01-10T02:10:25;-6.60;99.90
13205;DHT22;6667;52.634;9.226;2024-01-10T02:12:53;-6.60;99.90
13205;DHT22;6667;52.634;9.226;2024-01-10T02:15:20;-6.70;99.90
13205;DHT22;6667;52.634;9.226;2024-01-10T02:17:46;-6.70;99.90
13205;DHT22;6667;52.634;9.226;2024-01-10T02:20:14;-6.70;99.90
13205;DHT22;6667;52.634;9.226;2024-01-10T02:22:42;-6.70;99.90
13205;DHT22;6667;52.634;9.226;2024-01-10T02:25:10;-6.70;99.90
13205;DHT22;6667;52.634;9.226;2024-01-10T02:27:37;-6.60;99.90
13205;DHT22;6667;52.634;9.226;2024-01-10T02:30:05;-6.60;99.90
13205;DHT22;6667;52.634;9.226;2024-01-10T02:32:32;-6.70;99.90
13205;DHT22;6667;52.634;9.226;2024-01-10T02:34:59;-6.60;99.90
13205;DHT22;6667;52.634;9.226;2024-01-10T02:37:25;-6.60;99.90
13205;DHT22;6667;52.634;9.226;2024-01-10T02:39:52;-6.60;99.90
13205;DHT22;6667;52.634;9.226;2024-01-10T02:42:20;-6.70;99.90
13205;DHT22;6667;52.634;9.226;2024-01-10T02:44:47;-6.60;99.90
13205;DHT22;6667;52.634;9.226;2024-01-10T02:47:13;-6.60;99.90
13205;DHT22;6667;52.634;9.226;2024-01-10T02:49:40;-6.60;99.90
13205;DHT22;6667;52.634;9.226;2024-01-10T02:52:07;-6.60;99.90
13205;DHT22;6667;52.634;9.226;2024-01-10T02:54:33;-6.60;99.90
13205;DHT22;6667;52.634;9.226;2024-01-10T02:57:00;-6.70;99.90
13205;DHT22;6667;52.634;9.226;2024-01-10T02:59:28;-6.70;99.90
13205;DHT22;6667;52.634;9.226;2024-01-10T03:01:54;-6.70;99.90
13205;DHT22;6667;52.634;9.226;2024-01-10T03:04:21;-6.60;99.90
13205;DHT22;6667;52.634;9.226;2024-01-10T03:06:48;-6.60;99.90
13205;DHT22;6667;52.634;9.226;2024-01-10T03:09:14;-6.60;99.90
13205;DHT22;6667;52.634;9.226;2024-01-10T03:11:41;-6.60;99.90
13205;DHT22;6667;52.634;9.226;2024-01-10T03:14:08;-6.60;99.90
13205;DHT22;6667;52.634;9.226;2024-01-10T03:16:37;-6.60;99.90
13205;DHT22;6667;52.634;9.226;2024-01-10T03:19:04;-6.60;99.90
13205;DHT22;6667;52.634;9.226;2024-01-10T03:21:31;-6.60;99.90
13205;DHT22;6667;52.634;9.226;2024-01-10T03:23:58;-6.60;99.90
13205;DHT22;6667;52.634;9.226;2024-01-10T03:26:25;-6.60;99.90
13205;DHT22;6667;52.634;9.226;2024-01-10T03:28:53;-6.60;99.90
13205;DHT22;6667;52.634;9.226;2024-01-10T03:31:20;-6.60;99.90
13205;DHT22;6667;52.634;9.226;2024-01-10T03:33:48;-6.60;99.90
13205;DHT22;6667;52.634;9.226;2024-01-10T03:36:17;-6.60;99.90
13205;DHT22;6667;52.634;9.226;2024-01-10T03:38:44;-6.60;99.90
13205;DHT22;6667;52.634;9.226;2024-01-10T03:41:13;-6.70;99.90
13205;DHT22;6667;52.634;9.226;2024-01-10T03:43:39;-6.60;99.90
13205;DHT22;6667;52.634;9.226;2024-01-10T03:46:06;-6.60;99.90
13205;DHT22;6667;52.634;9.226;2024-01-10T03:48:33;-6.60;99.90
13205;DHT22;6667;52.634;9.226;2024-01-10T03:51:01;-6.60;99.90
13205;DHT22;6667;52.634;9.226;2024-01-10T03:53:27;-6.60;99.90
13205;DHT22;6667;52.634;9.226;2024-01-10T03:55:54;-6.60;99.90
13205;DHT22;6667;52.634;9.226;2024-01-10T03:58:21;-6.60;99.90
13205;DHT22;6667;52.634;9.226;2024-01-10T04:00:47;-6.50;99.90
13205;DHT22;6667;52.634;9.226;2024-01-10T04:03:14;-6.50;99.90
13205;DHT22;6667;52.634;9.226;2024-01-10T04:05:42;-6.60;99.90
13205;DHT22;6667;52.634;9.226;2024-01-10T04:08:10;-6.60;99.90
13205;DHT22;6667;52.634;9.226;2024-01-10T04:10:36;-6.60;99.90
13205;DHT22;6667;52.634;9.226;2024-01-10T04:13:03;-6.60;99.90
13205;DHT22;6667;52.634;9.226;2024-01-10T04:15:30;-6.60;99.90
13205;DHT22;6667;52.634;9.226;2024-01-10T04:17:56;-6.60;99.90
13205;DHT22;6667;52.634;9.226;2024-01-10T04:20:23;-6.60;99.90
13205;DHT22;6667;52.634;9.226;2024-01-10T04:22:49;-6.60;99.90
13205;DHT22;6667;52.634;9.226;2024-01-10T04:25:17;-6.60;99.90
13205;DHT22;6667;52.634;9.226;2024-01-10T04:27:44;-6.70;99.90
13205;DHT22;6667;52.634;9.226;2024-01-10T04:30:12;-6.60;99.90
13205;DHT22;6667;52.634;9.226;2024-01-10T04:32:38;-6.60;99.90
13205;DHT22;6667;52.634;9.226;2024-01-10T04:35:05;-6.60;99.90
13205;DHT22;6667;52.634;9.226;2024-01-10T04:37:32;-6.60;99.90
13205;DHT22;6667;52.634;9.226;2024-01-10T04:39:59;-6.60;99.90
13205;DHT22;6667;52.634;9.226;2024-01-10T04:42:27;-6.70;99.90
13205;DHT22;6667;52.634;9.226;2024-01-10T04:44:53;-6.70;99.90
13205;DHT22;6667;52.634;9.226;2024-01-10T04:47:20;-6.70;99.90
13205;DHT22;6667;52.634;9.226;2024-01-10T04:49:46;-6.70;99.90
13205;DHT22;6667;52.634;9.226;2024-01-10T04:52:13;-6.60;99.90
13205;DHT22;6667;52.634;9.226;2024-01-10T04:54:40;-6.70;99.90
13205;DHT22;6667;52.634;9.226;2024-01-10T04:57:06;-6.70;99.90
13205;DHT22;6667;52.634;9.226;2024-01-10T04:59:34;-6.60;99.90
13205;DHT22;6667;52.634;9.226;2024-01-10T05:02:01;-6.70;99.90
13205;DHT22;6667;52.634;9.226;2024-01-10T05:04:27;-6.60;99.90
13205;DHT22;6667;52.634;9.226;2024-01-10T05:06:54;-6.60;99.90
13205;DHT22;6667;52.634;9.226;2024-01-10T05:09:21;-6.70;99.90
13205;DHT22;6667;52.634;9.226;2024-01-10T05:11:47;-6.70;99.90
13205;DHT22;6667;52.634;9.226;2024-01-10T05:14:16;-6.70;99.90
13205;DHT22;6667;52.634;9.226;2024-01-10T05:16:46;-6.70;99.90
13205;DHT22;6667;52.634;9.226;2024-01-10T05:19:13;-6.70;99.90
13205;DHT22;6667;52.634;9.226;2024-01-10T05:21:40;-6.70;99.90
13205;DHT22;6667;52.634;9.226;2024-01-10T05:24:07;-6.70;99.90
13205;DHT22;6667;52.634;9.226;2024-01-10T05:26:33;-6.70;99.90
13205;DHT22;6667;52.634;9.226;2024-01-10T05:29:00;-6.70;99.90
13205;DHT22;6667;52.634;9.226;2024-01-10T05:31:27;-6.70;99.90
13205;DHT22;6667;52.634;9.226;2024-01-10T05:33:55;-6.70;99.90
13205;DHT22;6667;52.634;9.226;2024-01-10T05:36:22;-6.70;99.90
13205;DHT22;6667;52.634;9.226;2024-01-10T05:38:49;-6.70;99.90
13205;DHT22;6667;52.634;9.226;2024-01-10T05:41:16;-6.80;99.90
13205;DHT22;6667;52.634;9.226;2024-01-10T05:43:42;-6.90;99.90
13205;DHT22;6667;52.634;9.226;2024-01-10T05:46:09;-7.00;99.90
13205;DHT22;6667;52.634;9.226;2024-01-10T05:48:36;-7.00;99.90
13205;DHT22;6667;52.634;9.226;2024-01-10T05:51:05;-6.90;99.90
13205;DHT22;6667;52.634;9.226;2024-01-10T05:53:31;-6.80;99.90
13205;DHT22;6667;52.634;9.226;2024-01-10T05:55:58;-6.90;99.90
13205;DHT22;6667;52.634;9.226;2024-01-10T05:58:25;-6.90;99.90
13205;DHT22;6667;52.634;9.226;2024-01-10T06:00:51;-6.90;99.90
13205;DHT22;6667;52.634;9.226;2024-01-10T06:03:18;-6.90;99.90
13205;DHT22;6667;52.634;9.226;2024-01-10T06:05:45;-6.80;99.90
13205;DHT22;6667;52.634;9.226;2024-01-10T06:08:12;-6.80;99.90
13205;DHT22;6667;52.634;9.226;2024-01-10T06:10:40;-6.90;99.90
13205;DHT22;6667;52.634;9.226;2024-01-10T06:13:07;-6.90;99.90
13205;DHT22;6667;52.634;9.226;2024-01-10T06:15:34;-6.90;99.90
13205;DHT22;6667;52.634;9.226;2024-01-10T06:18:00;-6.90;99.90
13205;DHT22;6667;52.634;9.226;2024-01-10T06:20:27;-6.90;99.90
13205;DHT22;6667;52.634;9.226;2024-01-10T06:22:53;-6.90;99.90
13205;DHT22;6667;52.634;9.226;2024-01-10T06:25:21;-6.90;99.90
13205;DHT22;6667;52.634;9.226;2024-01-10T06:27:48;-6.90;99.90
13205;DHT22;6667;52.634;9.226;2024-01-10T06:30:15;-6.90;99.90
13205;DHT22;6667;52.634;9.226;2024-01-10T06:32:42;-6.90;99.90
13205;DHT22;6667;52.634;9.226;2024-01-10T06:35:08;-6.80;99.90
13205;DHT22;6667;52.634;9.226;2024-01-10T06:37:35;-6.90;99.90
13205;DHT22;6667;52.634;9.226;2024-01-10T06:40:02;-7.00;99.90
13205;DHT22;6667;52.634;9.226;2024-01-10T06:42:32;-7.00;99.90
13205;DHT22;6667;52.634;9.226;2024-01-10T06:44:59;-7.00;99.90
13205;DHT22;6667;52.634;9.226;2024-01-10T06:47:25;-7.00;99.90
13205;DHT22;6667;52.634;9.226;2024-01-10T06:49:52;-7.00;99.90
13205;DHT22;6667;52.634;9.226;2024-01-10T06:52:18;-7.00;99.90
13205;DHT22;6667;52.634;9.226;2024-01-10T06:54:45;-6.90;99.90
13205;DHT22;6667;52.634;9.226;2024-01-10T06:57:12;-7.00;99.90
13205;DHT22;6667;52.634;9.226;2024-01-10T06:59:40;-7.00;99.90
13205;DHT22;6667;52.634;9.226;2024-01-10T07:02:06;-7.00;99.90
13205;DHT22;6667;52.634;9.226;2024-01-10T07:04:33;-7.00;99.90
13205;DHT22;6667;52.634;9.226;2024-01-10T07:06:59;-6.90;99.90
13205;DHT22;6667;52.634;9.226;2024-01-10T07:09:27;-7.00;99.90
13205;DHT22;6667;52.634;9.226;2024-01-10T07:11:54;-7.00;99.90
13205;DHT22;6667;52.634;9.226;2024-01-10T07:14:21;-7.00;99.90
13205;DHT22;6667;52.634;9.226;2024-01-10T07:16:48;-7.00;99.90
13205;DHT22;6667;52.634;9.226;2024-01-10T07:19:15;-7.00;99.90
13205;DHT22;6667;52.634;9.226;2024-01-10T07:21:42;-7.00;99.90
13205;DHT22;6667;52.634;9.226;2024-01-10T07:24:09;-7.00;99.90
13205;DHT22;6667;52.634;9.226;2024-01-10T07:26:36;-7.00;99.90
13205;DHT22;6667;52.634;9.226;2024-01-10T07:29:03;-7.00;99.90
13205;DHT22;6667;52.634;9.226;2024-01-10T07:31:29;-7.10;99.90
13205;DHT22;6667;52.634;9.226;2024-01-10T07:33:58;-7.00;99.90
13205;DHT22;6667;52.634;9.226;2024-01-10T07:36:25;-7.00;99.90
13205;DHT22;6667;52.634;9.226;2024-01-10T07:38:51;-7.00;99.90
13205;DHT22;6667;52.634;9.226;2024-01-10T07:41:18;-7.00;99.90
13205;DHT22;6667;52.634;9.226;2024-01-10T07:43:45;-7.00;99.90
13205;DHT22;6667;52.634;9.226;2024-01-10T07:46:11;-6.90;99.90
13205;DHT22;6667;52.634;9.226;2024-01-10T07:48:38;-7.00;99.90
13205;DHT22;6667;52.634;9.226;2024-01-10T07:51:06;-7.00;99.90
13205;DHT22;6667;52.634;9.226;2024-01-10T07:53:33;-7.00;99.90
13205;DHT22;6667;52.634;9.226;2024-01-10T07:56:00;-7.00;99.90
13205;DHT22;6667;52.634;9.226;2024-01-10T07:58:27;-7.00;99.90
13205;DHT22;6667;52.634;9.226;2024-01-10T08:00:53;-7.00;99.90
13205;DHT22;6667;52.634;9.226;2024-01-10T08:03:20;-6.90;99.90
13205;DHT22;6667;52.634;9.226;2024-01-10T08:05:47;-6.90;99.90
13205;DHT22;6667;52.634;9.226;2024-01-10T08:08:15;-6.90;99.90
13205;DHT22;6667;52.634;9.226;2024-01-10T08:10:42;-6.90;99.90
13205;DHT22;6667;52.634;9.226;2024-01-10T08:13:09;-6.90;99.90
13205;DHT22;6667;52.634;9.226;2024-01-10T08:15:36;-6.90;99.90
13205;DHT22;6667;52.634;9.226;2024-01-10T08:18:03;-6.90;99.90
13205;DHT22;6667;52.634;9.226;2024-01-10T08:20:30;-6.90;99.90
13205;DHT22;6667;52.634;9.226;2024-01-10T08:22:56;-6.80;99.90
13205;DHT22;6667;52.634;9.226;2024-01-10T08:25:24;-6.80;99.90
13205;DHT22;6667;52.634;9.226;2024-01-10T08:27:51;-6.80;99.90
13205;DHT22;6667;52.634;9.226;2024-01-10T08:30:19;-6.70;99.90
13205;DHT22;6667;52.634;9.226;2024-01-10T08:32:47;-6.70;99.90
13205;DHT22;6667;52.634;9.226;2024-01-10T08:35:13;-6.70;99.90
13205;DHT22;6667;52.634;9.226;2024-01-10T08:37:40;-6.70;99.90
13205;DHT22;6667;52.634;9.226;2024-01-10T08:40:08;-6.70;99.90
13205;DHT22;6667;52.634;9.226;2024-01-10T08:42:38;-6.70;99.90
13205;DHT22;6667;52.634;9.226;2024-01-10T08:45:06;-6.60;99.90
13205;DHT22;6667;52.634;9.226;2024-01-10T08:47:34;-6.60;99.90
13205;DHT22;6667;52.634;9.226;2024-01-10T08:50:02;-6.60;99.90
13205;DHT22;6667;52.634;9.226;2024-01-10T08:52:30;-6.50;99.90
13205;DHT22;6667;52.634;9.226;2024-01-10T08:54:57;-6.40;99.90
13205;DHT22;6667;52.634;9.226;2024-01-10T08:57:24;-6.40;99.90
13205;DHT22;6667;52.634;9.226;2024-01-10T08:59:54;-6.30;99.90
13205;DHT22;6667;52.634;9.226;2024-01-10T09:02:20;-6.30;99.90
13205;DHT22;6667;52.634;9.226;2024-01-10T09:04:48;-6.30;99.90
13205;DHT22;6667;52.634;9.226;2024-01-10T09:07:15;-6.30;99.90
13205;DHT22;6667;52.634;9.226;2024-01-10T09:09:43;-6.10;99.90
13205;DHT22;6667;52.634;9.226;2024-01-10T09:12:10;-6.00;99.90
13205;DHT22;6667;52.634;9.226;2024-01-10T09:14:37;-5.90;99.90
13205;DHT22;6667;52.634;9.226;2024-01-10T09:17:06;-5.70;99.90
13205;DHT22;6667;52.634;9.226;2024-01-10T09:19:34;-5.40;99.90
13205;DHT22;6667;52.634;9.226;2024-01-10T09:22:01;-5.20;99.90
13205;DHT22;6667;52.634;9.226;2024-01-10T09:24:29;-4.90;99.90
13205;DHT22;6667;52.634;9.226;2024-01-10T09:26:56;-4.60;99.90
13205;DHT22;6667;52.634;9.226;2024-01-10T09:29:24;-4.40;99.90
13205;DHT22;6667;52.634;9.226;2024-01-10T09:31:51;-4.00;99.90
13205;DHT22;6667;52.634;9.226;2024-01-10T09:34:20;-3.80;99.90
13205;DHT22;6667;52.634;9.226;2024-01-10T09:36:47;-3.40;99.90
13205;DHT22;6667;52.634;9.226;2024-01-10T09:39:15;-3.20;99.90
13205;DHT22;6667;52.634;9.226;2024-01-10T09:41:46;-3.20;99.90
13205;DHT22;6667;52.634;9.226;2024-01-10T09:44:15;-3.30;99.90
13205;DHT22;6667;52.634;9.226;2024-01-10T09:46:46;-3.50;99.90
13205;DHT22;6667;52.634;9.226;2024-01-10T09:49:14;-3.20;99.90
13205;DHT22;6667;52.634;9.226;2024-01-10T09:51:42;-2.80;99.90
13205;DHT22;6667;52.634;9.226;2024-01-10T09:54:09;-2.60;99.90
13205;DHT22;6667;52.634;9.226;2024-01-10T09:56:37;-2.50;99.90
13205;DHT22;6667;52.634;9.226;2024-01-10T09:59:04;-2.30;99.90
13205;DHT22;6667;52.634;9.226;2024-01-10T10:01:36;-2.10;99.90
13205;DHT22;6667;52.634;9.226;2024-01-10T10:04:04;-2.00;99.90
13205;DHT22;6667;52.634;9.226;2024-01-10T10:06:31;-1.70;99.90
13205;DHT22;6667;52.634;9.226;2024-01-10T10:08:59;-1.60;99.90
13205;DHT22;6667;52.634;9.226;2024-01-10T10:11:26;-1.40;99.90
13205;DHT22;6667;52.634;9.226;2024-01-10T10:13:53;-1.20;99.90
13205;DHT22;6667;52.634;9.226;2024-01-10T10:16:23;-1.20;99.90
13205;DHT22;6667;52.634;9.226;2024-01-10T10:18:51;-1.10;99.90
13205;DHT22;6667;52.634;9.226;2024-01-10T10:21:25;-0.80;99.90
13205;DHT22;6667;52.634;9.226;2024-01-10T10:24:00;-0.70;99.90
13205;DHT22;6667;52.634;9.226;2024-01-10T10:26:32;-0.80;99.90
13205;DHT22;6667;52.634;9.226;2024-01-10T10:28:59;-0.50;99.90
13205;DHT22;6667;52.634;9.226;2024-01-10T10:31:26;-0.40;99.90
13205;DHT22;6667;52.634;9.226;2024-01-10T10:33:52;0.00;99.90
13205;DHT22;6667;52.634;9.226;2024-01-10T10:36:20;-0.20;99.90
13205;DHT22;6667;52.634;9.226;2024-01-10T10:38:47;-0.40;99.90
13205;DHT22;6667;52.634;9.226;2024-01-10T10:41:16;-0.20;99.90
13205;DHT22;6667;52.634;9.226;2024-01-10T10:43:44;-0.30;99.90
13205;DHT22;6667;52.634;9.226;2024-01-10T10:46:12;-0.20;99.90
13205;DHT22;6667;52.634;9.226;2024-01-10T10:48:40;-0.10;99.90
13205;DHT22;6667;52.634;9.226;2024-01-10T10:51:09;-0.20;99.90
13205;DHT22;6667;52.634;9.226;2024-01-10T10:53:37;-0.10;99.90
13205;DHT22;6667;52.634;9.226;2024-01-10T10:56:05;-0.10;99.90
13205;DHT22;6667;52.634;9.226;2024-01-10T10:58:36;-0.30;99.90
13205;DHT22;6667;52.634;9.226;2024-01-10T11:01:05;-0.10;99.90
13205;DHT22;6667;52.634;9.226;2024-01-10T11:03:34;0.40;99.90
13205;DHT22;6667;52.634;9.226;2024-01-10T11:06:02;0.80;99.90
13205;DHT22;6667;52.634;9.226;2024-01-10T11:08:32;0.80;99.90
13205;DHT22;6667;52.634;9.226;2024-01-10T11:11:01;0.50;99.90
13205;DHT22;6667;52.634;9.226;2024-01-10T11:13:52;0.60;99.90
13205;DHT22;6667;52.634;9.226;2024-01-10T11:16:42;0.90;99.90
13205;DHT22;6667;52.634;9.226;2024-01-10T11:19:29;0.90;99.90
13205;DHT22;6667;52.634;9.226;2024-01-10T11:22:10;0.90;99.90
13205;DHT22;6667;52.634;9.226;2024-01-10T11:24:40;0.90;99.90
13205;DHT22;6667;52.634;9.226;2024-01-10T11:27:09;0.50;99.90
13205;DHT22;6667;52.634;9.226;2024-01-10T11:29:39;0.40;99.90
13205;DHT22;6667;52.634;9.226;2024-01-10T11:32:06;0.30;99.90
13205;DHT22;6667;52.634;9.226;2024-01-10T11:34:35;0.10;99.90
13205;DHT22;6667;52.634;9.226;2024-01-10T11:37:11;-0.10;99.90
13205;DHT22;6667;52.634;9.226;2024-01-10T11:39:41;-0.80;99.90
13205;DHT22;6667;52.634;9.226;2024-01-10T11:42:09;-1.10;99.90
13205;DHT22;6667;52.634;9.226;2024-01-10T11:44:46;-1.20;99.90
13205;DHT22;6667;52.634;9.226;2024-01-10T11:47:15;-0.80;99.90
13205;DHT22;6667;52.634;9.226;2024-01-10T11:49:54;-0.60;99.90
13205;DHT22;6667;52.634;9.226;2024-01-10T11:52:22;-0.80;99.90
13205;DHT22;6667;52.634;9.226;2024-01-10T11:54:49;-1.00;99.90
13205;DHT22;6667;52.634;9.226;2024-01-10T11:57:20;-1.10;99.90
13205;DHT22;6667;52.634;9.226;2024-01-10T11:59:50;-1.20;99.90
13205;DHT22;6667;52.634;9.226;2024-01-10T12:02:18;-1.30;99.90
13205;DHT22;6667;52.634;9.226;2024-01-10T12:04:45;-1.40;99.90
13205;DHT22;6667;52.634;9.226;2024-01-10T12:07:12;-1.30;99.90
13205;DHT22;6667;52.634;9.226;2024-01-10T12:09:39;-1.20;99.90
13205;DHT22;6667;52.634;9.226;2024-01-10T12:12:07;-1.30;99.90
13205;DHT22;6667;52.634;9.226;2024-01-10T12:14:34;-1.40;99.90
13205;DHT22;6667;52.634;9.226;2024-01-10T12:17:03;-1.40;99.90
13205;DHT22;6667;52.634;9.226;2024-01-10T12:19:31;-1.50;99.90
13205;DHT22;6667;52.634;9.226;2024-01-10T12:21:59;-1.60;99.90
13205;DHT22;6667;52.634;9.226;2024-01-10T12:24:27;-1.50;99.90
13205;DHT22;6667;52.634;9.226;2024-01-10T12:26:55;-1.50;99.90
13205;DHT22;6667;52.634;9.226;2024-01-10T12:29:22;-1.50;99.90
13205;DHT22;6667;52.634;9.226;2024-01-10T12:31:50;-1.60;99.90
13205;DHT22;6667;52.634;9.226;2024-01-10T12:34:19;-1.50;99.90
13205;DHT22;6667;52.634;9.226;2024-01-10T12:36:47;-1.40;99.90
13205;DHT22;6667;52.634;9.226;2024-01-10T12:39:15;-1.60;99.90
13205;DHT22;6667;52.634;9.226;2024-01-10T12:41:42;-1.60;99.90
13205;DHT22;6667;52.634;9.226;2024-01-10T12:44:10;-1.50;99.90
13205;DHT22;6667;52.634;9.226;2024-01-10T12:46:49;-1.60;99.90
13205;DHT22;6667;52.634;9.226;2024-01-10T12:49:18;-1.50;99.90
13205;DHT22;6667;52.634;9.226;2024-01-10T12:51:46;-1.50;99.90
13205;DHT22;6667;52.634;9.226;2024-01-10T12:54:14;-1.50;99.90
13205;DHT22;6667;52.634;9.226;2024-01-10T12:56:41;-1.50;99.90
13205;DHT22;6667;52.634;9.226;2024-01-10T12:59:08;-1.50;99.90
13205;DHT22;6667;52.634;9.226;2024-01-10T13:01:36;-1.50;99.90
13205;DHT22;6667;52.634;9.226;2024-01-10T13:04:03;-1.50;99.90
13205;DHT22;6667;52.634;9.226;2024-01-10T13:06:31;-1.50;99.90
13205;DHT22;6667;52.634;9.226;2024-01-10T13:08:58;-1.50;99.90
13205;DHT22;6667;52.634;9.226;2024-01-10T13:11:25;-1.50;99.90
13205;DHT22;6667;52.634;9.226;2024-01-10T13:13:52;-1.50;99.90
13205;DHT22;6667;52.634;9.226;2024-01-10T13:16:18;-1.50;99.90
13205;DHT22;6667;52.634;9.226;2024-01-10T13:18:45;-1.50;99.90
13205;DHT22;6667;52.634;9.226;2024-01-10T13:21:12;-1.50;99.90
13205;DHT22;6667;52.634;9.226;2024-01-10T13:23:40;-1.50;99.90
13205;DHT22;6667;52.634;9.226;2024-01-10T13:26:07;-1.50;99.90
13205;DHT22;6667;52.634;9.226;2024-01-10T13:28:35;-1.50;99.90
13205;DHT22;6667;52.634;9.226;2024-01-10T13:31:01;-1.50;99.90
13205;DHT22;6667;52.634;9.226;2024-01-10T13:33:30;-1.50;99.90
13205;DHT22;6667;52.634;9.226;2024-01-10T13:35:57;-1.50;99.90
13205;DHT22;6667;52.634;9.226;2024-01-10T13:38:24;-1.50;99.90
13205;DHT22;6667;52.634;9.226;2024-01-10T13:40:53;-1.40;99.90
13205;DHT22;6667;52.634;9.226;2024-01-10T13:43:19;-1.40;99.90
13205;DHT22;6667;52.634;9.226;2024-01-10T13:45:46;-1.40;99.90
13205;DHT22;6667;52.634;9.226;2024-01-10T13:48:13;-1.40;99.90
13205;DHT22;6667;52.634;9.226;2024-01-10T13:50:40;-1.40;99.90
13205;DHT22;6667;52.634;9.226;2024-01-10T13:53:06;-1.40;99.90
13205;DHT22;6667;52.634;9.226;2024-01-10T13:55:33;-1.40;99.90
13205;DHT22;6667;52.634;9.226;2024-01-10T13:58:02;-1.40;99.90
13205;DHT22;6667;52.634;9.226;2024-01-10T14:00:29;-1.30;99.90
13205;DHT22;6667;52.634;9.226;2024-01-10T14:02:56;-1.20;99.90
13205;DHT22;6667;52.634;9.226;2024-01-10T14:05:26;-1.10;99.90
13205;DHT22;6667;52.634;9.226;2024-01-10T14:07:53;-1.10;99.90
13205;DHT22;6667;52.634;9.226;2024-01-10T14:10:20;-1.10;99.90
13205;DHT22;6667;52.634;9.226;2024-01-10T14:12:47;-1.10;99.90
13205;DHT22;6667;52.634;9.226;2024-01-10T14:15:15;-1.10;99.90
13205;DHT22;6667;52.634;9.226;2024-01-10T14:17:42;-1.10;99.90
13205;DHT22;6667;52.634;9.226;2024-01-10T14:20:10;-1.10;99.90
13205;DHT22;6667;52.634;9.226;2024-01-10T14:22:39;-1.10;99.90
13205;DHT22;6667;52.634;9.226;2024-01-10T14:25:07;-1.10;99.90
13205;DHT22;6667;52.634;9.226;2024-01-10T14:27:34;-1.00;99.90
13205;DHT22;6667;52.634;9.226;2024-01-10T14:30:04;-1.00;99.90
13205;DHT22;6667;52.634;9.226;2024-01-10T14:32:35;-1.00;99.90
13205;DHT22;6667;52.634;9.226;2024-01-10T14:35:03;-1.00;99.90
13205;DHT22;6667;52.634;9.226;2024-01-10T14:37:30;-1.00;99.90
13205;DHT22;6667;52.634;9.226;2024-01-10T14:39:57;-1.00;99.90
13205;DHT22;6667;52.634;9.226;2024-01-10T14:42:24;-1.10;99.90
13205;DHT22;6667;52.634;9.226;2024-01-10T14:44:51;-1.10;99.90
13205;DHT22;6667;52.634;9.226;2024-01-10T14:47:18;-1.10;99.90
13205;DHT22;6667;52.634;9.226;2024-01-10T14:49:47;-1.20;99.90
13205;DHT22;6667;52.634;9.226;2024-01-10T14:52:13;-1.20;99.90
13205;DHT22;6667;52.634;9.226;2024-01-10T14:54:40;-1.20;99.90
13205;DHT22;6667;52.634;9.226;2024-01-10T14:57:07;-1.30;99.90
13205;DHT22;6667;52.634;9.226;2024-01-10T14:59:34;-1.30;99.90
13205;DHT22;6667;52.634;9.226;2024-01-10T15:02:03;-1.30;99.90
13205;DHT22;6667;52.634;9.226;2024-01-10T15:04:32;-1.40;99.90
13205;DHT22;6667;52.634;9.226;2024-01-10T15:07:00;-1.50;99.90
13205;DHT22;6667;52.634;9.226;2024-01-10T15:09:27;-1.50;99.90
13205;DHT22;6667;52.634;9.226;2024-01-10T15:11:54;-1.60;99.90
13205;DHT22;6667;52.634;9.226;2024-01-10T15:14:21;-1.60;99.90
13205;DHT22;6667;52.634;9.226;2024-01-10T15:16:48;-1.60;99.90
13205;DHT22;6667;52.634;9.226;2024-01-10T15:19:15;-1.70;99.90
13205;DHT22;6667;52.634;9.226;2024-01-10T15:21:41;-1.70;99.90
13205;DHT22;6667;52.634;9.226;2024-01-10T15:24:09;-1.80;99.90
13205;DHT22;6667;52.634;9.226;2024-01-10T15:26:36;-1.80;99.90
13205;DHT22;6667;52.634;9.226;2024-01-10T15:29:03;-1.80;99.90
13205;DHT22;6667;52.634;9.226;2024-01-10T15:31:30;-1.80;99.90
13205;DHT22;6667;52.634;9.226;2024-01-10T15:33:58;-1.90;99.90
13205;DHT22;6667;52.634;9.226;2024-01-10T15:36:25;-2.00;99.90
13205;DHT22;6667;52.634;9.226;2024-01-10T15:38:53;-2.00;99.90
13205;DHT22;6667;52.634;9.226;2024-01-10T15:41:24;-2.00;99.90
13205;DHT22;6667;52.634;9.226;2024-01-10T15:43:51;-2.10;99.90
13205;DHT22;6667;52.634;9.226;2024-01-10T15:46:18;-2.10;99.90
13205;DHT22;6667;52.634;9.226;2024-01-10T15:48:45;-2.10;99.90